Waterville, Canada
Current Conditions -  °F | °C
As of 4:00 PM on Friday 31 Oct 2014 (Local Time) from CYSC Reporting Station
Overcast Overcast  
Wind Chill: 45°   Ceiling: 4300
Heat Index: 45°   Visibility: 9mi
Dew Point: 27°   Wind: 2mph
Humidity: 49%   Direction: NA
Pressure: 30.02"   Gusts: NA
Location:  45.28°N, 71.88°W
Report Text: CYSC 312000Z AUTO VRB02KT 9SM OVC043 07/M03 A3002 RMK SLP175
Loading
Personal Weather Stations






























Interactive Weather Map
Tropical Storm Tracking
New forecast layout! Learn more

10-Day Weather Forecast

Advertisements
Track Severe Weather on mobile